sensor_id;sensor_type;location;lat;lon;timestamp;P1;durP1;ratioP1;P2;durP2;ratioP2
44512;SDS011;30219;50.588;9.504;2022-10-18T00:01:44;16.27;;;4.60;;
44512;SDS011;30219;50.588;9.504;2022-10-18T00:04:09;13.10;;;5.13;;
44512;SDS011;30219;50.588;9.504;2022-10-18T00:06:35;11.38;;;5.80;;
44512;SDS011;30219;50.588;9.504;2022-10-18T00:09:00;13.77;;;5.30;;
44512;SDS011;30219;50.588;9.504;2022-10-18T00:11:26;9.13;;;5.40;;
44512;SDS011;30219;50.588;9.504;2022-10-18T00:13:52;8.88;;;5.05;;
44512;SDS011;30219;50.588;9.504;2022-10-18T00:16:19;14.35;;;5.32;;
44512;SDS011;30219;50.588;9.504;2022-10-18T00:18:45;11.80;;;4.80;;
44512;SDS011;30219;50.588;9.504;2022-10-18T00:21:16;11.00;;;4.70;;
44512;SDS011;30219;50.588;9.504;2022-10-18T00:23:44;13.13;;;4.13;;
44512;SDS011;30219;50.588;9.504;2022-10-18T00:26:12;12.82;;;4.32;;
44512;SDS011;30219;50.588;9.504;2022-10-18T00:28:40;10.48;;;4.22;;
44512;SDS011;30219;50.588;9.504;2022-10-18T00:33:43;9.25;;;4.68;;
44512;SDS011;30219;50.588;9.504;2022-10-18T00:36:10;12.65;;;4.40;;
44512;SDS011;30219;50.588;9.504;2022-10-18T00:38:37;13.75;;;4.90;;
44512;SDS011;30219;50.588;9.504;2022-10-18T00:41:03;13.65;;;4.95;;
44512;SDS011;30219;50.588;9.504;2022-10-18T00:43:31;12.00;;;4.47;;
44512;SDS011;30219;50.588;9.504;2022-10-18T00:45:57;11.20;;;4.55;;
44512;SDS011;30219;50.588;9.504;2022-10-18T00:48:22;12.57;;;3.90;;
44512;SDS011;30219;50.588;9.504;2022-10-18T00:50:49;10.70;;;4.22;;
44512;SDS011;30219;50.588;9.504;2022-10-18T00:53:16;9.75;;;4.20;;
44512;SDS011;30219;50.588;9.504;2022-10-18T00:55:44;15.30;;;4.57;;
44512;SDS011;30219;50.588;9.504;2022-10-18T00:58:10;12.55;;;4.65;;
44512;SDS011;30219;50.588;9.504;2022-10-18T01:00:39;11.57;;;4.28;;
44512;SDS011;30219;50.588;9.504;2022-10-18T01:03:05;20.25;;;4.35;;
44512;SDS011;30219;50.588;9.504;2022-10-18T01:05:32;18.67;;;4.45;;
44512;SDS011;30219;50.588;9.504;2022-10-18T01:16:52;13.88;;;4.93;;
44512;SDS011;30219;50.588;9.504;2022-10-18T01:22:08;14.93;;;5.32;;
44512;SDS011;30219;50.588;9.504;2022-10-18T01:30:27;13.30;;;5.32;;
44512;SDS011;30219;50.588;9.504;2022-10-18T01:33:26;12.15;;;5.18;;
44512;SDS011;30219;50.588;9.504;2022-10-18T01:36:17;14.30;;;6.10;;
44512;SDS011;30219;50.588;9.504;2022-10-18T01:38:47;15.32;;;5.82;;
44512;SDS011;30219;50.588;9.504;2022-10-18T01:41:16;15.07;;;5.18;;
44512;SDS011;30219;50.588;9.504;2022-10-18T01:43:45;15.38;;;7.45;;
44512;SDS011;30219;50.588;9.504;2022-10-18T01:46:16;12.30;;;6.28;;
44512;SDS011;30219;50.588;9.504;2022-10-18T01:48:45;12.93;;;6.50;;
44512;SDS011;30219;50.588;9.504;2022-10-18T01:51:11;12.73;;;5.90;;
44512;SDS011;30219;50.588;9.504;2022-10-18T01:53:36;12.07;;;5.38;;
44512;SDS011;30219;50.588;9.504;2022-10-18T02:01:18;19.35;;;8.55;;
44512;SDS011;30219;50.588;9.504;2022-10-18T02:03:54;13.93;;;6.40;;
44512;SDS011;30219;50.588;9.504;2022-10-18T02:06:22;12.60;;;6.30;;
44512;SDS011;30219;50.588;9.504;2022-10-18T02:08:55;13.35;;;6.50;;
44512;SDS011;30219;50.588;9.504;2022-10-18T02:11:26;17.30;;;6.28;;
44512;SDS011;30219;50.588;9.504;2022-10-18T02:16:35;12.50;;;6.13;;
44512;SDS011;30219;50.588;9.504;2022-10-18T02:21:54;13.07;;;5.57;;
44512;SDS011;30219;50.588;9.504;2022-10-18T02:24:22;13.70;;;7.00;;
44512;SDS011;30219;50.588;9.504;2022-10-18T02:26:51;12.55;;;6.43;;
44512;SDS011;30219;50.588;9.504;2022-10-18T02:29:16;11.00;;;6.22;;
44512;SDS011;30219;50.588;9.504;2022-10-18T02:31:43;9.15;;;6.07;;
44512;SDS011;30219;50.588;9.504;2022-10-18T02:36:57;12.82;;;6.65;;
44512;SDS011;30219;50.588;9.504;2022-10-18T02:39:34;11.10;;;7.43;;
44512;SDS011;30219;50.588;9.504;2022-10-18T02:42:03;10.57;;;6.82;;
44512;SDS011;30219;50.588;9.504;2022-10-18T02:44:33;9.90;;;6.78;;
44512;SDS011;30219;50.588;9.504;2022-10-18T02:46:59;9.15;;;6.07;;
44512;SDS011;30219;50.588;9.504;2022-10-18T02:49:25;9.57;;;5.88;;
44512;SDS011;30219;50.588;9.504;2022-10-18T02:51:51;9.27;;;6.60;;
44512;SDS011;30219;50.588;9.504;2022-10-18T02:54:16;10.77;;;6.13;;
44512;SDS011;30219;50.588;9.504;2022-10-18T02:56:42;9.60;;;5.68;;
44512;SDS011;30219;50.588;9.504;2022-10-18T02:59:07;8.30;;;5.32;;
44512;SDS011;30219;50.588;9.504;2022-10-18T03:01:33;6.68;;;4.75;;
44512;SDS011;30219;50.588;9.504;2022-10-18T03:04:00;8.13;;;4.70;;
44512;SDS011;30219;50.588;9.504;2022-10-18T03:06:26;7.75;;;5.00;;
44512;SDS011;30219;50.588;9.504;2022-10-18T03:08:52;8.93;;;5.72;;
44512;SDS011;30219;50.588;9.504;2022-10-18T03:11:17;15.30;;;5.95;;
44512;SDS011;30219;50.588;9.504;2022-10-18T03:13:43;11.20;;;5.68;;
44512;SDS011;30219;50.588;9.504;2022-10-18T03:16:09;9.48;;;5.68;;
44512;SDS011;30219;50.588;9.504;2022-10-18T03:18:35;7.63;;;5.13;;
44512;SDS011;30219;50.588;9.504;2022-10-18T03:21:04;7.68;;;5.22;;
44512;SDS011;30219;50.588;9.504;2022-10-18T03:23:30;7.95;;;4.47;;
44512;SDS011;30219;50.588;9.504;2022-10-18T03:25:56;7.03;;;4.75;;
44512;SDS011;30219;50.588;9.504;2022-10-18T03:28:21;7.72;;;5.47;;
44512;SDS011;30219;50.588;9.504;2022-10-18T03:30:47;14.07;;;5.47;;
44512;SDS011;30219;50.588;9.504;2022-10-18T03:33:12;9.82;;;5.72;;
44512;SDS011;30219;50.588;9.504;2022-10-18T03:35:38;7.35;;;5.15;;
44512;SDS011;30219;50.588;9.504;2022-10-18T03:38:04;8.02;;;5.03;;
44512;SDS011;30219;50.588;9.504;2022-10-18T03:40:29;7.45;;;5.30;;
44512;SDS011;30219;50.588;9.504;2022-10-18T03:42:55;8.32;;;4.88;;
44512;SDS011;30219;50.588;9.504;2022-10-18T03:45:21;10.00;;;5.05;;
44512;SDS011;30219;50.588;9.504;2022-10-18T03:47:46;8.32;;;4.85;;
44512;SDS011;30219;50.588;9.504;2022-10-18T03:50:12;7.38;;;4.95;;
44512;SDS011;30219;50.588;9.504;2022-10-18T03:52:37;8.45;;;5.32;;
44512;SDS011;30219;50.588;9.504;2022-10-18T03:55:03;7.70;;;4.82;;
44512;SDS011;30219;50.588;9.504;2022-10-18T03:57:29;7.57;;;4.30;;
44512;SDS011;30219;50.588;9.504;2022-10-18T03:59:54;7.75;;;4.72;;
44512;SDS011;30219;50.588;9.504;2022-10-18T04:02:20;9.02;;;4.93;;
44512;SDS011;30219;50.588;9.504;2022-10-18T04:04:45;9.38;;;4.47;;
44512;SDS011;30219;50.588;9.504;2022-10-18T04:07:11;7.85;;;4.00;;
44512;SDS011;30219;50.588;9.504;2022-10-18T04:09:37;7.88;;;4.53;;
44512;SDS011;30219;50.588;9.504;2022-10-18T04:12:02;7.82;;;4.63;;
44512;SDS011;30219;50.588;9.504;2022-10-18T04:14:28;6.70;;;3.42;;
44512;SDS011;30219;50.588;9.504;2022-10-18T04:16:53;5.88;;;3.90;;
44512;SDS011;30219;50.588;9.504;2022-10-18T04:19:19;6.00;;;3.20;;
44512;SDS011;30219;50.588;9.504;2022-10-18T04:21:44;4.45;;;3.03;;
44512;SDS011;30219;50.588;9.504;2022-10-18T04:24:10;5.82;;;2.90;;
44512;SDS011;30219;50.588;9.504;2022-10-18T04:26:36;9.23;;;3.63;;
44512;SDS011;30219;50.588;9.504;2022-10-18T04:29:01;4.57;;;2.67;;
44512;SDS011;30219;50.588;9.504;2022-10-18T04:31:27;5.57;;;2.90;;
44512;SDS011;30219;50.588;9.504;2022-10-18T04:33:53;5.90;;;3.03;;
44512;SDS011;30219;50.588;9.504;2022-10-18T04:36:18;6.03;;;3.80;;
44512;SDS011;30219;50.588;9.504;2022-10-18T04:38:44;8.80;;;3.30;;
44512;SDS011;30219;50.588;9.504;2022-10-18T04:41:09;4.78;;;2.67;;
44512;SDS011;30219;50.588;9.504;2022-10-18T04:43:35;5.57;;;2.50;;
44512;SDS011;30219;50.588;9.504;2022-10-18T04:46:00;3.53;;;2.42;;
44512;SDS011;30219;50.588;9.504;2022-10-18T04:48:26;5.00;;;2.97;;
44512;SDS011;30219;50.588;9.504;2022-10-18T04:50:52;5.32;;;2.65;;
44512;SDS011;30219;50.588;9.504;2022-10-18T04:53:17;4.78;;;2.60;;
44512;SDS011;30219;50.588;9.504;2022-10-18T04:55:46;3.80;;;2.35;;
44512;SDS011;30219;50.588;9.504;2022-10-18T04:58:13;4.72;;;1.40;;
44512;SDS011;30219;50.588;9.504;2022-10-18T05:00:39;4.18;;;1.05;;
44512;SDS011;30219;50.588;9.504;2022-10-18T05:03:05;3.53;;;1.08;;
44512;SDS011;30219;50.588;9.504;2022-10-18T05:05:31;2.92;;;0.70;;
44512;SDS011;30219;50.588;9.504;2022-10-18T05:07:56;2.80;;;0.80;;
44512;SDS011;30219;50.588;9.504;2022-10-18T05:10:22;4.60;;;1.00;;
44512;SDS011;30219;50.588;9.504;2022-10-18T05:12:47;2.53;;;0.70;;
44512;SDS011;30219;50.588;9.504;2022-10-18T05:15:13;6.30;;;0.60;;
44512;SDS011;30219;50.588;9.504;2022-10-18T05:17:39;5.07;;;0.60;;
44512;SDS011;30219;50.588;9.504;2022-10-18T05:20:04;5.68;;;0.50;;
44512;SDS011;30219;50.588;9.504;2022-10-18T05:22:30;2.53;;;0.40;;
44512;SDS011;30219;50.588;9.504;2022-10-18T05:24:56;5.53;;;0.90;;
44512;SDS011;30219;50.588;9.504;2022-10-18T05:27:21;3.17;;;0.47;;
44512;SDS011;30219;50.588;9.504;2022-10-18T05:29:47;2.08;;;0.60;;
44512;SDS011;30219;50.588;9.504;2022-10-18T05:32:12;6.72;;;1.23;;
44512;SDS011;30219;50.588;9.504;2022-10-18T05:34:38;1.80;;;0.47;;
44512;SDS011;30219;50.588;9.504;2022-10-18T05:37:04;1.83;;;0.50;;
44512;SDS011;30219;50.588;9.504;2022-10-18T05:39:30;5.55;;;0.80;;
44512;SDS011;30219;50.588;9.504;2022-10-18T05:41:56;6.13;;;0.70;;
44512;SDS011;30219;50.588;9.504;2022-10-18T05:44:22;2.30;;;0.60;;
44512;SDS011;30219;50.588;9.504;2022-10-18T05:46:47;4.43;;;1.38;;
44512;SDS011;30219;50.588;9.504;2022-10-18T05:49:13;3.00;;;0.80;;
44512;SDS011;30219;50.588;9.504;2022-10-18T05:51:39;5.28;;;1.10;;
44512;SDS011;30219;50.588;9.504;2022-10-18T05:54:05;1.75;;;0.70;;
44512;SDS011;30219;50.588;9.504;2022-10-18T05:56:30;3.50;;;0.52;;
44512;SDS011;30219;50.588;9.504;2022-10-18T05:58:56;2.50;;;0.65;;
44512;SDS011;30219;50.588;9.504;2022-10-18T06:01:22;0.82;;;0.35;;
44512;SDS011;30219;50.588;9.504;2022-10-18T06:03:47;2.92;;;0.60;;
44512;SDS011;30219;50.588;9.504;2022-10-18T06:06:14;3.03;;;0.57;;
44512;SDS011;30219;50.588;9.504;2022-10-18T06:08:40;2.92;;;0.88;;
44512;SDS011;30219;50.588;9.504;2022-10-18T06:11:08;1.10;;;0.57;;
44512;SDS011;30219;50.588;9.504;2022-10-18T06:13:38;0.77;;;0.47;;
44512;SDS011;30219;50.588;9.504;2022-10-18T06:16:07;1.60;;;0.73;;
44512;SDS011;30219;50.588;9.504;2022-10-18T06:18:34;2.47;;;0.50;;
44512;SDS011;30219;50.588;9.504;2022-10-18T06:21:00;3.25;;;1.00;;
44512;SDS011;30219;50.588;9.504;2022-10-18T06:23:26;1.25;;;0.82;;
44512;SDS011;30219;50.588;9.504;2022-10-18T06:25:52;1.85;;;0.65;;
44512;SDS011;30219;50.588;9.504;2022-10-18T06:28:17;5.95;;;0.60;;
44512;SDS011;30219;50.588;9.504;2022-10-18T06:30:43;1.67;;;0.50;;
44512;SDS011;30219;50.588;9.504;2022-10-18T06:33:09;2.97;;;0.47;;
44512;SDS011;30219;50.588;9.504;2022-10-18T06:35:36;2.63;;;0.50;;
44512;SDS011;30219;50.588;9.504;2022-10-18T06:38:01;5.15;;;0.75;;
44512;SDS011;30219;50.588;9.504;2022-10-18T06:40:27;4.63;;;1.00;;
44512;SDS011;30219;50.588;9.504;2022-10-18T06:42:54;2.45;;;0.70;;
44512;SDS011;30219;50.588;9.504;2022-10-18T06:45:20;1.85;;;0.57;;
44512;SDS011;30219;50.588;9.504;2022-10-18T06:47:46;2.22;;;0.68;;
44512;SDS011;30219;50.588;9.504;2022-10-18T06:50:11;3.78;;;0.82;;
44512;SDS011;30219;50.588;9.504;2022-10-18T06:52:37;3.90;;;0.80;;
44512;SDS011;30219;50.588;9.504;2022-10-18T06:55:03;2.35;;;0.65;;
44512;SDS011;30219;50.588;9.504;2022-10-18T06:57:29;2.70;;;0.57;;
44512;SDS011;30219;50.588;9.504;2022-10-18T06:59:55;2.72;;;0.73;;
44512;SDS011;30219;50.588;9.504;2022-10-18T07:02:21;4.72;;;0.80;;
44512;SDS011;30219;50.588;9.504;2022-10-18T07:04:47;3.50;;;0.57;;
44512;SDS011;30219;50.588;9.504;2022-10-18T07:07:12;2.03;;;0.65;;
44512;SDS011;30219;50.588;9.504;2022-10-18T07:09:38;2.10;;;0.70;;
44512;SDS011;30219;50.588;9.504;2022-10-18T07:12:04;1.88;;;0.68;;
44512;SDS011;30219;50.588;9.504;2022-10-18T07:14:30;3.47;;;0.68;;
44512;SDS011;30219;50.588;9.504;2022-10-18T07:16:57;1.75;;;0.40;;
44512;SDS011;30219;50.588;9.504;2022-10-18T07:19:23;1.27;;;0.60;;
44512;SDS011;30219;50.588;9.504;2022-10-18T07:21:49;2.05;;;0.60;;
44512;SDS011;30219;50.588;9.504;2022-10-18T07:24:14;3.95;;;0.65;;
44512;SDS011;30219;50.588;9.504;2022-10-18T07:26:40;2.13;;;0.60;;
44512;SDS011;30219;50.588;9.504;2022-10-18T07:29:07;1.45;;;0.60;;
44512;SDS011;30219;50.588;9.504;2022-10-18T07:31:34;0.55;;;0.40;;
44512;SDS011;30219;50.588;9.504;2022-10-18T07:34:03;1.60;;;0.50;;
44512;SDS011;30219;50.588;9.504;2022-10-18T07:36:29;0.80;;;0.40;;
44512;SDS011;30219;50.588;9.504;2022-10-18T07:38:55;3.53;;;0.38;;
44512;SDS011;30219;50.588;9.504;2022-10-18T07:41:21;1.45;;;0.50;;
44512;SDS011;30219;50.588;9.504;2022-10-18T07:43:48;1.02;;;0.50;;
44512;SDS011;30219;50.588;9.504;2022-10-18T07:46:15;2.28;;;0.65;;
44512;SDS011;30219;50.588;9.504;2022-10-18T07:48:41;3.08;;;0.75;;
44512;SDS011;30219;50.588;9.504;2022-10-18T07:51:07;1.50;;;0.60;;
44512;SDS011;30219;50.588;9.504;2022-10-18T07:53:33;2.90;;;0.80;;
44512;SDS011;30219;50.588;9.504;2022-10-18T07:55:59;2.38;;;0.60;;
44512;SDS011;30219;50.588;9.504;2022-10-18T07:58:26;4.20;;;0.70;;
44512;SDS011;30219;50.588;9.504;2022-10-18T08:00:52;2.22;;;0.95;;
44512;SDS011;30219;50.588;9.504;2022-10-18T08:03:18;2.72;;;0.50;;
44512;SDS011;30219;50.588;9.504;2022-10-18T08:05:45;7.55;;;0.65;;
44512;SDS011;30219;50.588;9.504;2022-10-18T08:08:16;2.10;;;0.50;;
44512;SDS011;30219;50.588;9.504;2022-10-18T08:10:42;1.25;;;0.45;;
44512;SDS011;30219;50.588;9.504;2022-10-18T08:13:08;1.40;;;0.60;;
44512;SDS011;30219;50.588;9.504;2022-10-18T08:15:33;3.10;;;0.70;;
44512;SDS011;30219;50.588;9.504;2022-10-18T08:17:59;3.53;;;0.90;;
44512;SDS011;30219;50.588;9.504;2022-10-18T08:20:24;1.85;;;0.73;;
44512;SDS011;30219;50.588;9.504;2022-10-18T08:22:50;1.70;;;0.50;;
44512;SDS011;30219;50.588;9.504;2022-10-18T08:25:15;2.45;;;0.88;;
44512;SDS011;30219;50.588;9.504;2022-10-18T08:27:41;5.70;;;1.25;;
44512;SDS011;30219;50.588;9.504;2022-10-18T08:30:07;3.10;;;0.80;;
44512;SDS011;30219;50.588;9.504;2022-10-18T08:32:33;4.60;;;0.70;;
44512;SDS011;30219;50.588;9.504;2022-10-18T08:34:59;1.55;;;0.80;;
44512;SDS011;30219;50.588;9.504;2022-10-18T08:37:25;1.27;;;0.60;;
44512;SDS011;30219;50.588;9.504;2022-10-18T08:39:50;2.97;;;0.88;;
44512;SDS011;30219;50.588;9.504;2022-10-18T08:42:20;2.92;;;0.80;;
44512;SDS011;30219;50.588;9.504;2022-10-18T08:45:05;2.80;;;1.17;;
44512;SDS011;30219;50.588;9.504;2022-10-18T08:47:36;3.95;;;1.00;;
44512;SDS011;30219;50.588;9.504;2022-10-18T08:50:11;3.17;;;1.00;;
44512;SDS011;30219;50.588;9.504;2022-10-18T08:52:44;1.90;;;0.88;;
44512;SDS011;30219;50.588;9.504;2022-10-18T08:55:30;4.53;;;0.85;;
44512;SDS011;30219;50.588;9.504;2022-10-18T09:06:25;4.85;;;0.95;;
44512;SDS011;30219;50.588;9.504;2022-10-18T09:11:51;5.32;;;0.95;;
44512;SDS011;30219;50.588;9.504;2022-10-18T09:17:31;7.78;;;0.68;;
44512;SDS011;30219;50.588;9.504;2022-10-18T09:20:22;1.15;;;0.60;;
44512;SDS011;30219;50.588;9.504;2022-10-18T09:22:54;4.07;;;0.70;;
44512;SDS011;30219;50.588;9.504;2022-10-18T09:25:31;5.25;;;1.15;;
44512;SDS011;30219;50.588;9.504;2022-10-18T09:30:53;2.38;;;1.20;;
44512;SDS011;30219;50.588;9.504;2022-10-18T09:38:52;1.42;;;0.40;;
44512;SDS011;30219;50.588;9.504;2022-10-18T09:41:22;0.50;;;0.38;;
44512;SDS011;30219;50.588;9.504;2022-10-18T09:43:59;0.75;;;0.45;;
44512;SDS011;30219;50.588;9.504;2022-10-18T09:46:31;1.40;;;0.43;;
44512;SDS011;30219;50.588;9.504;2022-10-18T09:49:05;1.70;;;0.47;;
44512;SDS011;30219;50.588;9.504;2022-10-18T09:51:38;2.08;;;0.95;;
44512;SDS011;30219;50.588;9.504;2022-10-18T09:56:39;3.92;;;0.43;;
44512;SDS011;30219;50.588;9.504;2022-10-18T10:01:44;0.60;;;0.20;;
44512;SDS011;30219;50.588;9.504;2022-10-18T10:04:09;1.42;;;0.40;;
44512;SDS011;30219;50.588;9.504;2022-10-18T10:06:35;2.10;;;0.45;;
44512;SDS011;30219;50.588;9.504;2022-10-18T10:09:07;1.05;;;0.47;;
44512;SDS011;30219;50.588;9.504;2022-10-18T10:11:43;2.50;;;0.30;;
44512;SDS011;30219;50.588;9.504;2022-10-18T10:14:24;3.08;;;0.65;;
44512;SDS011;30219;50.588;9.504;2022-10-18T10:16:52;0.80;;;0.50;;
44512;SDS011;30219;50.588;9.504;2022-10-18T10:19:21;0.95;;;0.50;;
44512;SDS011;30219;50.588;9.504;2022-10-18T10:21:52;0.95;;;0.30;;
44512;SDS011;30219;50.588;9.504;2022-10-18T10:24:22;2.17;;;0.43;;
44512;SDS011;30219;50.588;9.504;2022-10-18T10:26:56;0.77;;;0.40;;
44512;SDS011;30219;50.588;9.504;2022-10-18T10:32:11;0.60;;;0.25;;
44512;SDS011;30219;50.588;9.504;2022-10-18T10:34:38;0.85;;;0.40;;
44512;SDS011;30219;50.588;9.504;2022-10-18T10:37:19;1.73;;;0.60;;
44512;SDS011;30219;50.588;9.504;2022-10-18T10:42:37;1.77;;;0.70;;
44512;SDS011;30219;50.588;9.504;2022-10-18T10:45:26;1.50;;;0.70;;
44512;SDS011;30219;50.588;9.504;2022-10-18T10:47:53;2.35;;;0.73;;
44512;SDS011;30219;50.588;9.504;2022-10-18T10:50:26;1.98;;;0.88;;
44512;SDS011;30219;50.588;9.504;2022-10-18T10:52:53;2.53;;;0.90;;
44512;SDS011;30219;50.588;9.504;2022-10-18T10:55:22;1.73;;;0.90;;
44512;SDS011;30219;50.588;9.504;2022-10-18T10:57:55;2.28;;;1.40;;
44512;SDS011;30219;50.588;9.504;2022-10-18T11:00:34;1.88;;;1.00;;
44512;SDS011;30219;50.588;9.504;2022-10-18T11:03:16;2.00;;;1.13;;
44512;SDS011;30219;50.588;9.504;2022-10-18T11:05:52;3.22;;;1.05;;
44512;SDS011;30219;50.588;9.504;2022-10-18T11:08:26;1.27;;;0.55;;
44512;SDS011;30219;50.588;9.504;2022-10-18T11:13:49;0.30;;;0.30;;
44512;SDS011;30219;50.588;9.504;2022-10-18T11:16:23;1.25;;;0.43;;
44512;SDS011;30219;50.588;9.504;2022-10-18T11:19:02;0.98;;;0.40;;
44512;SDS011;30219;50.588;9.504;2022-10-18T11:21:55;0.77;;;0.30;;
44512;SDS011;30219;50.588;9.504;2022-10-18T11:24:22;1.40;;;0.45;;
44512;SDS011;30219;50.588;9.504;2022-10-18T11:26:51;1.83;;;0.40;;
44512;SDS011;30219;50.588;9.504;2022-10-18T11:29:39;1.05;;;0.60;;
44512;SDS011;30219;50.588;9.504;2022-10-18T11:40:24;2.83;;;0.75;;
44512;SDS011;30219;50.588;9.504;2022-10-18T11:43:03;3.80;;;0.60;;
44512;SDS011;30219;50.588;9.504;2022-10-18T11:48:34;1.15;;;0.65;;
44512;SDS011;30219;50.588;9.504;2022-10-18T11:54:07;1.48;;;0.77;;
44512;SDS011;30219;50.588;9.504;2022-10-18T11:56:41;2.45;;;0.50;;
44512;SDS011;30219;50.588;9.504;2022-10-18T11:59:26;0.40;;;0.38;;
44512;SDS011;30219;50.588;9.504;2022-10-18T12:02:02;4.25;;;0.52;;
44512;SDS011;30219;50.588;9.504;2022-10-18T12:04:35;1.92;;;0.90;;
44512;SDS011;30219;50.588;9.504;2022-10-18T12:07:08;1.20;;;0.50;;
44512;SDS011;30219;50.588;9.504;2022-10-18T12:09:41;1.38;;;0.70;;
44512;SDS011;30219;50.588;9.504;2022-10-18T12:14:51;0.90;;;0.50;;
44512;SDS011;30219;50.588;9.504;2022-10-18T12:20:02;3.03;;;0.80;;
44512;SDS011;30219;50.588;9.504;2022-10-18T12:22:33;1.83;;;0.80;;
44512;SDS011;30219;50.588;9.504;2022-10-18T12:25:02;4.47;;;1.20;;
44512;SDS011;30219;50.588;9.504;2022-10-18T12:27:37;2.17;;;1.10;;
44512;SDS011;30219;50.588;9.504;2022-10-18T12:30:33;1.45;;;0.90;;
44512;SDS011;30219;50.588;9.504;2022-10-18T12:33:17;1.65;;;0.85;;
44512;SDS011;30219;50.588;9.504;2022-10-18T12:35:54;2.25;;;1.15;;
44512;SDS011;30219;50.588;9.504;2022-10-18T12:38:37;3.08;;;1.20;;
44512;SDS011;30219;50.588;9.504;2022-10-18T12:41:06;3.78;;;1.45;;
44512;SDS011;30219;50.588;9.504;2022-10-18T12:43:46;3.05;;;1.40;;
44512;SDS011;30219;50.588;9.504;2022-10-18T12:46:16;2.60;;;1.58;;
44512;SDS011;30219;50.588;9.504;2022-10-18T12:48:42;2.10;;;1.30;;
44512;SDS011;30219;50.588;9.504;2022-10-18T12:51:17;3.88;;;1.60;;
44512;SDS011;30219;50.588;9.504;2022-10-18T12:56:33;2.78;;;1.15;;
44512;SDS011;30219;50.588;9.504;2022-10-18T13:09:27;3.90;;;1.23;;
44512;SDS011;30219;50.588;9.504;2022-10-18T13:11:57;1.98;;;1.17;;
44512;SDS011;30219;50.588;9.504;2022-10-18T13:22:39;3.92;;;1.10;;
44512;SDS011;30219;50.588;9.504;2022-10-18T13:25:28;2.30;;;1.23;;
44512;SDS011;30219;50.588;9.504;2022-10-18T13:31:18;3.05;;;1.00;;
44512;SDS011;30219;50.588;9.504;2022-10-18T13:34:04;2.08;;;1.20;;
44512;SDS011;30219;50.588;9.504;2022-10-18T13:36:55;1.80;;;1.20;;
44512;SDS011;30219;50.588;9.504;2022-10-18T13:39:30;3.78;;;1.50;;
44512;SDS011;30219;50.588;9.504;2022-10-18T13:44:29;2.22;;;1.30;;
44512;SDS011;30219;50.588;9.504;2022-10-18T13:54:59;3.63;;;1.10;;
44512;SDS011;30219;50.588;9.504;2022-10-18T14:11:00;2.50;;;1.45;;
44512;SDS011;30219;50.588;9.504;2022-10-18T14:13:41;2.38;;;1.20;;
44512;SDS011;30219;50.588;9.504;2022-10-18T14:18:46;1.92;;;1.17;;
44512;SDS011;30219;50.588;9.504;2022-10-18T14:21:17;3.60;;;0.90;;
44512;SDS011;30219;50.588;9.504;2022-10-18T14:23:48;2.30;;;0.90;;
44512;SDS011;30219;50.588;9.504;2022-10-18T14:26:15;3.20;;;0.98;;
44512;SDS011;30219;50.588;9.504;2022-10-18T14:28:43;2.40;;;1.45;;
44512;SDS011;30219;50.588;9.504;2022-10-18T14:31:13;2.42;;;1.05;;
44512;SDS011;30219;50.588;9.504;2022-10-18T14:33:41;4.77;;;1.00;;
44512;SDS011;30219;50.588;9.504;2022-10-18T14:38:52;6.38;;;1.10;;
44512;SDS011;30219;50.588;9.504;2022-10-18T14:43:46;6.43;;;1.30;;
44512;SDS011;30219;50.588;9.504;2022-10-18T14:46:17;4.00;;;1.10;;
44512;SDS011;30219;50.588;9.504;2022-10-18T14:48:59;4.00;;;1.20;;
44512;SDS011;30219;50.588;9.504;2022-10-18T14:51:27;6.10;;;1.20;;
44512;SDS011;30219;50.588;9.504;2022-10-18T14:53:57;4.63;;;1.20;;
44512;SDS011;30219;50.588;9.504;2022-10-18T14:56:31;6.82;;;1.73;;
44512;SDS011;30219;50.588;9.504;2022-10-18T14:59:03;3.58;;;1.40;;
44512;SDS011;30219;50.588;9.504;2022-10-18T15:01:35;2.83;;;1.50;;
44512;SDS011;30219;50.588;9.504;2022-10-18T15:04:04;12.00;;;1.45;;
44512;SDS011;30219;50.588;9.504;2022-10-18T15:06:33;2.17;;;1.10;;
44512;SDS011;30219;50.588;9.504;2022-10-18T15:09:00;4.47;;;1.35;;
44512;SDS011;30219;50.588;9.504;2022-10-18T15:11:30;12.88;;;1.40;;
44512;SDS011;30219;50.588;9.504;2022-10-18T15:14:01;8.65;;;1.75;;
44512;SDS011;30219;50.588;9.504;2022-10-18T15:16:33;12.32;;;1.40;;
44512;SDS011;30219;50.588;9.504;2022-10-18T15:19:06;6.55;;;1.20;;
44512;SDS011;30219;50.588;9.504;2022-10-18T15:21:58;2.00;;;1.20;;
44512;SDS011;30219;50.588;9.504;2022-10-18T15:26:51;3.95;;;1.52;;
44512;SDS011;30219;50.588;9.504;2022-10-18T15:29:18;7.72;;;1.42;;
44512;SDS011;30219;50.588;9.504;2022-10-18T15:31:45;4.15;;;1.33;;
44512;SDS011;30219;50.588;9.504;2022-10-18T15:34:23;4.80;;;1.40;;
44512;SDS011;30219;50.588;9.504;2022-10-18T15:36:51;3.95;;;1.23;;
44512;SDS011;30219;50.588;9.504;2022-10-18T15:39:26;9.88;;;2.65;;
44512;SDS011;30219;50.588;9.504;2022-10-18T15:41:59;5.78;;;1.42;;
44512;SDS011;30219;50.588;9.504;2022-10-18T15:44:30;7.47;;;1.30;;
44512;SDS011;30219;50.588;9.504;2022-10-18T15:47:08;15.52;;;2.33;;
44512;SDS011;30219;50.588;9.504;2022-10-18T15:52:28;7.68;;;1.42;;
44512;SDS011;30219;50.588;9.504;2022-10-18T15:54:59;2.72;;;1.30;;
44512;SDS011;30219;50.588;9.504;2022-10-18T15:57:25;6.18;;;1.70;;
44512;SDS011;30219;50.588;9.504;2022-10-18T15:59:56;9.43;;;1.20;;
44512;SDS011;30219;50.588;9.504;2022-10-18T16:02:29;6.78;;;2.03;;
44512;SDS011;30219;50.588;9.504;2022-10-18T16:04:57;6.72;;;1.48;;
44512;SDS011;30219;50.588;9.504;2022-10-18T16:07:26;4.65;;;1.65;;
44512;SDS011;30219;50.588;9.504;2022-10-18T16:09:52;4.65;;;1.83;;
44512;SDS011;30219;50.588;9.504;2022-10-18T16:12:17;5.50;;;1.55;;
44512;SDS011;30219;50.588;9.504;2022-10-18T16:14:43;5.47;;;1.42;;
44512;SDS011;30219;50.588;9.504;2022-10-18T16:17:09;6.90;;;1.65;;
44512;SDS011;30219;50.588;9.504;2022-10-18T16:19:40;6.50;;;1.45;;
44512;SDS011;30219;50.588;9.504;2022-10-18T16:22:12;8.38;;;1.58;;
44512;SDS011;30219;50.588;9.504;2022-10-18T16:24:38;4.53;;;1.75;;
44512;SDS011;30219;50.588;9.504;2022-10-18T16:27:04;3.22;;;1.55;;
44512;SDS011;30219;50.588;9.504;2022-10-18T16:29:30;3.42;;;1.60;;
44512;SDS011;30219;50.588;9.504;2022-10-18T16:31:57;6.32;;;1.65;;
44512;SDS011;30219;50.588;9.504;2022-10-18T16:34:24;4.20;;;1.70;;
44512;SDS011;30219;50.588;9.504;2022-10-18T16:36:51;8.52;;;1.83;;
44512;SDS011;30219;50.588;9.504;2022-10-18T16:39:17;3.45;;;1.63;;
44512;SDS011;30219;50.588;9.504;2022-10-18T16:41:44;6.32;;;1.80;;
44512;SDS011;30219;50.588;9.504;2022-10-18T16:44:10;4.72;;;1.70;;
44512;SDS011;30219;50.588;9.504;2022-10-18T16:46:36;6.25;;;1.60;;
44512;SDS011;30219;50.588;9.504;2022-10-18T16:49:02;9.90;;;2.25;;
44512;SDS011;30219;50.588;9.504;2022-10-18T16:51:28;5.72;;;1.70;;
44512;SDS011;30219;50.588;9.504;2022-10-18T16:53:54;6.43;;;1.65;;
44512;SDS011;30219;50.588;9.504;2022-10-18T16:56:20;7.63;;;1.92;;
44512;SDS011;30219;50.588;9.504;2022-10-18T16:58:48;5.78;;;1.75;;
44512;SDS011;30219;50.588;9.504;2022-10-18T17:01:15;4.93;;;1.88;;
44512;SDS011;30219;50.588;9.504;2022-10-18T17:03:43;7.88;;;1.70;;
44512;SDS011;30219;50.588;9.504;2022-10-18T17:06:12;11.00;;;2.50;;
44512;SDS011;30219;50.588;9.504;2022-10-18T17:08:40;6.80;;;1.80;;
44512;SDS011;30219;50.588;9.504;2022-10-18T17:11:05;6.25;;;2.08;;
44512;SDS011;30219;50.588;9.504;2022-10-18T17:13:31;8.07;;;1.50;;
44512;SDS011;30219;50.588;9.504;2022-10-18T17:15:56;5.90;;;1.88;;
44512;SDS011;30219;50.588;9.504;2022-10-18T17:18:24;5.70;;;1.73;;
44512;SDS011;30219;50.588;9.504;2022-10-18T17:20:51;13.57;;;1.85;;
44512;SDS011;30219;50.588;9.504;2022-10-18T17:23:17;7.93;;;1.95;;
44512;SDS011;30219;50.588;9.504;2022-10-18T17:25:43;5.30;;;1.90;;
44512;SDS011;30219;50.588;9.504;2022-10-18T17:28:12;6.10;;;2.00;;